Terminal Aerodrome Forecast
Issued by NWS

Home | Current Version | Previous Version | Text Only | Print | Product List | Glossary On
Versions: 1 2 3 4 5 6 7 8 9 10 11 12 13 14 15 16 17 18
000
FTUS43 KMPX 242320
TAFRNH
TAF
KRNH 242320Z 2500/2524 06006KT P6SM OVC015
      TEMPO 2506/2508 4SM -SN BR OVC012
     FM250800 03009KT 2SM -SN OVC012
     FM251100 01011KT 1 1/2SM -SN OVC010
     FM251700 35012G19KT 3SM -SN BR OVC012
     FM252100 35011G18KT 5SM -SN BR OVC015=

USA.gov is the U.S. government's official web portal to all federal, state and local government web resources and services.